sensor_id;sensor_type;location;lat;lon;timestamp;pressure;altitude;pressure_sealevel;temperature;humidity
41636;BME280;27623;51.966;4.602;2022-10-31T00:01:20;64816.66;;;14.68;100.00
41636;BME280;27623;51.966;4.602;2022-10-31T00:03:48;64804.78;;;14.59;100.00
41636;BME280;27623;51.966;4.602;2022-10-31T00:06:14;64796.53;;;14.59;100.00
41636;BME280;27623;51.966;4.602;2022-10-31T00:08:42;64790.44;;;14.67;100.00
41636;BME280;27623;51.966;4.602;2022-10-31T00:11:10;64762.91;;;14.39;100.00
41636;BME280;27623;51.966;4.602;2022-10-31T00:13:36;64767.91;;;14.30;100.00
41636;BME280;27623;51.966;4.602;2022-10-31T00:16:04;64772.59;;;14.39;100.00
41636;BME280;27623;51.966;4.602;2022-10-31T00:18:30;64764.38;;;14.38;100.00
41636;BME280;27623;51.966;4.602;2022-10-31T00:21:00;64781.41;;;14.40;100.00
41636;BME280;27623;51.966;4.602;2022-10-31T00:23:28;64761.63;;;14.36;100.00
41636;BME280;27623;51.966;4.602;2022-10-31T00:25:59;64756.88;;;14.41;100.00
41636;BME280;27623;51.966;4.602;2022-10-31T00:28:25;64794.41;;;14.42;100.00
41636;BME280;27623;51.966;4.602;2022-10-31T00:30:50;64794.00;;;14.52;100.00
41636;BME280;27623;51.966;4.602;2022-10-31T00:33:18;64783.41;;;14.47;100.00
41636;BME280;27623;51.966;4.602;2022-10-31T00:35:50;64777.91;;;14.49;100.00
41636;BME280;27623;51.966;4.602;2022-10-31T00:38:18;64772.06;;;14.46;100.00
41636;BME280;27623;51.966;4.602;2022-10-31T00:40:46;64783.06;;;14.41;100.00
41636;BME280;27623;51.966;4.602;2022-10-31T00:43:12;64747.44;;;14.16;100.00
41636;BME280;27623;51.966;4.602;2022-10-31T00:45:37;64773.69;;;14.40;100.00
41636;BME280;27623;51.966;4.602;2022-10-31T00:48:03;64753.38;;;14.35;100.00
41636;BME280;27623;51.966;4.602;2022-10-31T00:50:31;64761.31;;;14.31;100.00
41636;BME280;27623;51.966;4.602;2022-10-31T00:52:59;64737.47;;;14.35;100.00
41636;BME280;27623;51.966;4.602;2022-10-31T00:55:27;64739.31;;;14.32;100.00
41636;BME280;27623;51.966;4.602;2022-10-31T00:57:54;64791.69;;;14.33;100.00
41636;BME280;27623;51.966;4.602;2022-10-31T01:00:20;64759.06;;;14.43;100.00
41636;BME280;27623;51.966;4.602;2022-10-31T01:02:46;64784.16;;;14.35;100.00
41636;BME280;27623;51.966;4.602;2022-10-31T01:05:11;64745.16;;;14.35;100.00
41636;BME280;27623;51.966;4.602;2022-10-31T01:07:39;64760.56;;;14.28;100.00
41636;BME280;27623;51.966;4.602;2022-10-31T01:10:08;64745.56;;;14.26;100.00
41636;BME280;27623;51.966;4.602;2022-10-31T01:12:43;64725.06;;;13.88;100.00
41636;BME280;27623;51.966;4.602;2022-10-31T01:15:12;64716.22;;;13.94;100.00
41636;BME280;27623;51.966;4.602;2022-10-31T01:17:38;64737.72;;;14.16;100.00
41636;BME280;27623;51.966;4.602;2022-10-31T01:20:05;64743.44;;;14.09;100.00
41636;BME280;27623;51.966;4.602;2022-10-31T01:22:34;64738.31;;;14.09;100.00
41636;BME280;27623;51.966;4.602;2022-10-31T01:25:02;64719.94;;;13.88;100.00
41636;BME280;27623;51.966;4.602;2022-10-31T01:27:28;64739.06;;;14.05;100.00
41636;BME280;27623;51.966;4.602;2022-10-31T01:29:53;64734.72;;;13.94;100.00
41636;BME280;27623;51.966;4.602;2022-10-31T01:32:18;64728.13;;;13.95;100.00
41636;BME280;27623;51.966;4.602;2022-10-31T01:34:44;64706.19;;;13.89;100.00
41636;BME280;27623;51.966;4.602;2022-10-31T01:37:10;64682.44;;;13.79;100.00
41636;BME280;27623;51.966;4.602;2022-10-31T01:39:38;64689.75;;;13.81;100.00
41636;BME280;27623;51.966;4.602;2022-10-31T01:42:04;64705.56;;;13.65;100.00
41636;BME280;27623;51.966;4.602;2022-10-31T01:49:24;64686.94;;;13.55;100.00
41636;BME280;27623;51.966;4.602;2022-10-31T01:51:53;64705.22;;;13.60;100.00
41636;BME280;27623;51.966;4.602;2022-10-31T01:54:22;64680.31;;;13.63;100.00
41636;BME280;27623;51.966;4.602;2022-10-31T01:56:50;64671.59;;;13.48;100.00
41636;BME280;27623;51.966;4.602;2022-10-31T01:59:22;64660.22;;;13.54;100.00
41636;BME280;27623;51.966;4.602;2022-10-31T02:01:53;64665.25;;;13.37;100.00
41636;BME280;27623;51.966;4.602;2022-10-31T02:04:26;64657.56;;;13.37;100.00
41636;BME280;27623;51.966;4.602;2022-10-31T02:07:02;64613.13;;;13.38;100.00
41636;BME280;27623;51.966;4.602;2022-10-31T02:09:31;64648.94;;;13.46;100.00
41636;BME280;27623;51.966;4.602;2022-10-31T02:12:01;64614.47;;;13.28;100.00
41636;BME280;27623;51.966;4.602;2022-10-31T02:14:29;64652.59;;;13.47;100.00
41636;BME280;27623;51.966;4.602;2022-10-31T02:16:56;64674.16;;;13.48;100.00
41636;BME280;27623;51.966;4.602;2022-10-31T02:19:31;64647.66;;;13.49;100.00
41636;BME280;27623;51.966;4.602;2022-10-31T02:22:23;64651.53;;;13.31;100.00
41636;BME280;27623;51.966;4.602;2022-10-31T02:30:07;64621.41;;;13.25;100.00
41636;BME280;27623;51.966;4.602;2022-10-31T02:35:37;64638.25;;;13.17;100.00
41636;BME280;27623;51.966;4.602;2022-10-31T02:38:19;64647.72;;;13.28;100.00
41636;BME280;27623;51.966;4.602;2022-10-31T02:40:59;64604.38;;;13.30;100.00
41636;BME280;27623;51.966;4.602;2022-10-31T02:46:32;64600.47;;;13.03;100.00
41636;BME280;27623;51.966;4.602;2022-10-31T02:49:13;64604.47;;;13.02;100.00
41636;BME280;27623;51.966;4.602;2022-10-31T02:51:43;64573.06;;;12.99;100.00
41636;BME280;27623;51.966;4.602;2022-10-31T02:54:19;64564.13;;;12.95;100.00
41636;BME280;27623;51.966;4.602;2022-10-31T02:56:53;64572.53;;;12.98;100.00
41636;BME280;27623;51.966;4.602;2022-10-31T02:59:22;64591.72;;;12.95;100.00
41636;BME280;27623;51.966;4.602;2022-10-31T03:02:23;64604.69;;;12.90;100.00
41636;BME280;27623;51.966;4.602;2022-10-31T03:07:47;64606.88;;;12.92;100.00
41636;BME280;27623;51.966;4.602;2022-10-31T03:13:10;64595.00;;;12.91;100.00
41636;BME280;27623;51.966;4.602;2022-10-31T03:15:44;64537.53;;;12.80;100.00
41636;BME280;27623;51.966;4.602;2022-10-31T03:18:33;64582.34;;;12.62;100.00
41636;BME280;27623;51.966;4.602;2022-10-31T03:21:14;64570.59;;;12.70;100.00
41636;BME280;27623;51.966;4.602;2022-10-31T03:23:43;64576.44;;;12.73;100.00
41636;BME280;27623;51.966;4.602;2022-10-31T03:26:11;64560.38;;;12.78;100.00
41636;BME280;27623;51.966;4.602;2022-10-31T03:31:24;64587.94;;;12.77;100.00
41636;BME280;27623;51.966;4.602;2022-10-31T03:33:54;64554.09;;;12.46;100.00
41636;BME280;27623;51.966;4.602;2022-10-31T03:36:22;64563.84;;;12.69;100.00
41636;BME280;27623;51.966;4.602;2022-10-31T03:38:48;64602.41;;;12.64;100.00
41636;BME280;27623;51.966;4.602;2022-10-31T03:41:18;64578.44;;;12.80;100.00
41636;BME280;27623;51.966;4.602;2022-10-31T03:44:07;64556.88;;;12.79;100.00
41636;BME280;27623;51.966;4.602;2022-10-31T03:46:33;64604.00;;;12.80;100.00
41636;BME280;27623;51.966;4.602;2022-10-31T03:48:59;64590.13;;;12.79;100.00
41636;BME280;27623;51.966;4.602;2022-10-31T03:54:14;64566.75;;;12.74;100.00
41636;BME280;27623;51.966;4.602;2022-10-31T03:56:50;64573.50;;;12.83;100.00
41636;BME280;27623;51.966;4.602;2022-10-31T03:59:31;64596.72;;;12.78;100.00
41636;BME280;27623;51.966;4.602;2022-10-31T04:02:05;64558.59;;;12.66;100.00
41636;BME280;27623;51.966;4.602;2022-10-31T04:04:32;64579.19;;;12.69;100.00
41636;BME280;27623;51.966;4.602;2022-10-31T04:07:01;64546.75;;;12.58;100.00
41636;BME280;27623;51.966;4.602;2022-10-31T04:09:32;64540.00;;;12.49;100.00
41636;BME280;27623;51.966;4.602;2022-10-31T04:12:02;64544.06;;;12.34;100.00
41636;BME280;27623;51.966;4.602;2022-10-31T04:14:31;64568.13;;;12.49;100.00
41636;BME280;27623;51.966;4.602;2022-10-31T04:16:58;64558.44;;;12.50;100.00
41636;BME280;27623;51.966;4.602;2022-10-31T04:19:25;64564.28;;;12.53;100.00
41636;BME280;27623;51.966;4.602;2022-10-31T04:21:50;64511.56;;;12.44;100.00
41636;BME280;27623;51.966;4.602;2022-10-31T04:24:19;64555.88;;;12.50;100.00
41636;BME280;27623;51.966;4.602;2022-10-31T04:26:44;64551.88;;;12.51;100.00
41636;BME280;27623;51.966;4.602;2022-10-31T04:29:09;64556.59;;;12.53;100.00
41636;BME280;27623;51.966;4.602;2022-10-31T04:31:37;64560.13;;;12.44;100.00
41636;BME280;27623;51.966;4.602;2022-10-31T04:34:02;64549.13;;;12.55;100.00
41636;BME280;27623;51.966;4.602;2022-10-31T04:36:28;64550.06;;;12.47;100.00
41636;BME280;27623;51.966;4.602;2022-10-31T04:38:53;64530.00;;;12.37;100.00
41636;BME280;27623;51.966;4.602;2022-10-31T04:41:22;64497.16;;;12.43;100.00
41636;BME280;27623;51.966;4.602;2022-10-31T04:43:47;64551.53;;;12.46;100.00
41636;BME280;27623;51.966;4.602;2022-10-31T04:46:15;64562.50;;;12.42;100.00
41636;BME280;27623;51.966;4.602;2022-10-31T04:48:43;64507.38;;;12.35;100.00
41636;BME280;27623;51.966;4.602;2022-10-31T04:51:11;64550.47;;;12.37;100.00
41636;BME280;27623;51.966;4.602;2022-10-31T04:53:39;64547.91;;;12.37;100.00
41636;BME280;27623;51.966;4.602;2022-10-31T04:56:04;64557.41;;;12.34;100.00
41636;BME280;27623;51.966;4.602;2022-10-31T04:58:31;64500.09;;;12.26;100.00
41636;BME280;27623;51.966;4.602;2022-10-31T05:00:56;64519.97;;;12.33;100.00
41636;BME280;27623;51.966;4.602;2022-10-31T05:03:22;64523.97;;;12.39;100.00
41636;BME280;27623;51.966;4.602;2022-10-31T05:05:47;64516.16;;;12.29;100.00
41636;BME280;27623;51.966;4.602;2022-10-31T05:08:16;64503.25;;;12.20;100.00
41636;BME280;27623;51.966;4.602;2022-10-31T05:10:41;64559.94;;;12.34;100.00
41636;BME280;27623;51.966;4.602;2022-10-31T05:13:09;64494.81;;;12.31;100.00
41636;BME280;27623;51.966;4.602;2022-10-31T05:15:35;64491.59;;;12.14;100.00
41636;BME280;27623;51.966;4.602;2022-10-31T05:18:00;64515.09;;;12.21;100.00
41636;BME280;27623;51.966;4.602;2022-10-31T05:20:29;64525.81;;;12.36;100.00
41636;BME280;27623;51.966;4.602;2022-10-31T05:22:56;64522.72;;;12.35;100.00
41636;BME280;27623;51.966;4.602;2022-10-31T05:25:27;64509.81;;;12.26;100.00
41636;BME280;27623;51.966;4.602;2022-10-31T05:27:56;64502.50;;;12.24;100.00
41636;BME280;27623;51.966;4.602;2022-10-31T05:30:27;64537.31;;;12.39;100.00
41636;BME280;27623;51.966;4.602;2022-10-31T05:32:53;64549.38;;;12.29;100.00
41636;BME280;27623;51.966;4.602;2022-10-31T05:35:22;64492.09;;;12.21;100.00
41636;BME280;27623;51.966;4.602;2022-10-31T05:37:50;64488.28;;;12.25;100.00
41636;BME280;27623;51.966;4.602;2022-10-31T05:40:16;64499.94;;;12.24;100.00
41636;BME280;27623;51.966;4.602;2022-10-31T05:42:42;64547.59;;;12.25;100.00
41636;BME280;27623;51.966;4.602;2022-10-31T05:45:15;64487.50;;;12.29;100.00
41636;BME280;27623;51.966;4.602;2022-10-31T05:47:49;64485.38;;;12.20;100.00
41636;BME280;27623;51.966;4.602;2022-10-31T05:50:15;64540.09;;;12.21;100.00
41636;BME280;27623;51.966;4.602;2022-10-31T05:52:41;64502.72;;;12.12;100.00
41636;BME280;27623;51.966;4.602;2022-10-31T05:55:08;64475.41;;;12.01;100.00
41636;BME280;27623;51.966;4.602;2022-10-31T05:57:34;64490.56;;;11.91;100.00
41636;BME280;27623;51.966;4.602;2022-10-31T06:00:00;64446.22;;;12.00;100.00
41636;BME280;27623;51.966;4.602;2022-10-31T06:02:28;64513.88;;;12.03;100.00
41636;BME280;27623;51.966;4.602;2022-10-31T06:04:57;64506.25;;;11.89;100.00
41636;BME280;27623;51.966;4.602;2022-10-31T06:07:32;64463.16;;;12.01;100.00
41636;BME280;27623;51.966;4.602;2022-10-31T06:10:00;64503.13;;;11.96;100.00
41636;BME280;27623;51.966;4.602;2022-10-31T06:12:26;64483.09;;;11.87;100.00
41636;BME280;27623;51.966;4.602;2022-10-31T06:14:51;64497.78;;;12.08;100.00
41636;BME280;27623;51.966;4.602;2022-10-31T06:17:17;64523.56;;;12.03;100.00
41636;BME280;27623;51.966;4.602;2022-10-31T06:19:43;64498.34;;;12.08;100.00
41636;BME280;27623;51.966;4.602;2022-10-31T06:22:08;64479.03;;;12.02;100.00
41636;BME280;27623;51.966;4.602;2022-10-31T06:24:33;64509.84;;;12.12;100.00
41636;BME280;27623;51.966;4.602;2022-10-31T06:26:59;64471.88;;;12.10;100.00
41636;BME280;27623;51.966;4.602;2022-10-31T06:29:27;64506.72;;;12.11;100.00
41636;BME280;27623;51.966;4.602;2022-10-31T06:31:55;64484.28;;;12.12;100.00
41636;BME280;27623;51.966;4.602;2022-10-31T06:34:20;64535.88;;;12.26;100.00
41636;BME280;27623;51.966;4.602;2022-10-31T06:36:46;64481.00;;;12.09;100.00
41636;BME280;27623;51.966;4.602;2022-10-31T06:39:12;64499.66;;;12.04;100.00
41636;BME280;27623;51.966;4.602;2022-10-31T06:41:38;64491.59;;;12.14;100.00
41636;BME280;27623;51.966;4.602;2022-10-31T06:44:05;64473.34;;;12.16;100.00
41636;BME280;27623;51.966;4.602;2022-10-31T06:46:31;64497.63;;;12.05;100.00
41636;BME280;27623;51.966;4.602;2022-10-31T06:48:57;64483.94;;;12.07;100.00
41636;BME280;27623;51.966;4.602;2022-10-31T06:51:23;64485.53;;;12.22;100.00
41636;BME280;27623;51.966;4.602;2022-10-31T06:53:51;64462.88;;;11.82;100.00
41636;BME280;27623;51.966;4.602;2022-10-31T06:56:16;64489.59;;;12.07;100.00
41636;BME280;27623;51.966;4.602;2022-10-31T06:58:44;64489.44;;;12.04;100.00
41636;BME280;27623;51.966;4.602;2022-10-31T07:01:15;64468.13;;;11.92;100.00
41636;BME280;27623;51.966;4.602;2022-10-31T07:03:40;64486.03;;;11.78;100.00
41636;BME280;27623;51.966;4.602;2022-10-31T07:06:06;64472.72;;;11.84;100.00
41636;BME280;27623;51.966;4.602;2022-10-31T07:08:31;64478.19;;;11.82;100.00
41636;BME280;27623;51.966;4.602;2022-10-31T07:10:57;64504.06;;;11.87;100.00
41636;BME280;27623;51.966;4.602;2022-10-31T07:13:23;64433.69;;;11.81;100.00
41636;BME280;27623;51.966;4.602;2022-10-31T07:15:58;64462.69;;;11.73;100.00
41636;BME280;27623;51.966;4.602;2022-10-31T07:18:24;64418.25;;;11.50;100.00
41636;BME280;27623;51.966;4.602;2022-10-31T07:20:51;64455.63;;;11.45;100.00
41636;BME280;27623;51.966;4.602;2022-10-31T07:23:16;64405.31;;;11.48;100.00
41636;BME280;27623;51.966;4.602;2022-10-31T07:25:44;64464.34;;;11.67;100.00
41636;BME280;27623;51.966;4.602;2022-10-31T07:28:10;64424.06;;;11.60;100.00
41636;BME280;27623;51.966;4.602;2022-10-31T07:30:37;64449.78;;;11.56;100.00
41636;BME280;27623;51.966;4.602;2022-10-31T07:33:03;64439.59;;;11.49;100.00
41636;BME280;27623;51.966;4.602;2022-10-31T07:35:30;64448.50;;;11.52;100.00
41636;BME280;27623;51.966;4.602;2022-10-31T07:38:07;64438.66;;;11.57;100.00
41636;BME280;27623;51.966;4.602;2022-10-31T07:40:35;64452.88;;;11.56;100.00
41636;BME280;27623;51.966;4.602;2022-10-31T07:43:00;64438.31;;;11.45;100.00
41636;BME280;27623;51.966;4.602;2022-10-31T07:45:28;64450.13;;;11.61;100.00
41636;BME280;27623;51.966;4.602;2022-10-31T07:47:54;64422.47;;;11.45;100.00
41636;BME280;27623;51.966;4.602;2022-10-31T07:50:22;64426.25;;;11.62;100.00
41636;BME280;27623;51.966;4.602;2022-10-31T07:52:48;64462.88;;;11.68;100.00
41636;BME280;27623;51.966;4.602;2022-10-31T07:55:23;64452.13;;;11.67;100.00
41636;BME280;27623;51.966;4.602;2022-10-31T07:58:11;64464.00;;;11.55;100.00
41636;BME280;27623;51.966;4.602;2022-10-31T08:00:39;64470.19;;;11.56;100.00
41636;BME280;27623;51.966;4.602;2022-10-31T08:03:10;64440.13;;;11.56;100.00
41636;BME280;27623;51.966;4.602;2022-10-31T08:05:41;64423.53;;;11.60;100.00
41636;BME280;27623;51.966;4.602;2022-10-31T08:08:07;64408.31;;;11.24;100.00
41636;BME280;27623;51.966;4.602;2022-10-31T08:10:34;64404.66;;;11.23;100.00
41636;BME280;27623;51.966;4.602;2022-10-31T08:13:05;64397.91;;;11.36;100.00
41636;BME280;27623;51.966;4.602;2022-10-31T08:15:32;64413.22;;;11.29;100.00
41636;BME280;27623;51.966;4.602;2022-10-31T08:17:59;64453.84;;;11.41;100.00
41636;BME280;27623;51.966;4.602;2022-10-31T08:20:25;64448.16;;;11.47;100.00
41636;BME280;27623;51.966;4.602;2022-10-31T08:23:00;64440.38;;;11.23;100.00
41636;BME280;27623;51.966;4.602;2022-10-31T08:25:28;64460.72;;;11.45;100.00
41636;BME280;27623;51.966;4.602;2022-10-31T08:27:57;64422.50;;;11.38;100.00
41636;BME280;27623;51.966;4.602;2022-10-31T08:30:26;64384.59;;;11.28;100.00
41636;BME280;27623;51.966;4.602;2022-10-31T08:33:06;64439.03;;;11.55;100.00
41636;BME280;27623;51.966;4.602;2022-10-31T08:35:35;64452.16;;;11.60;100.00
41636;BME280;27623;51.966;4.602;2022-10-31T08:38:03;64463.78;;;11.66;100.00
41636;BME280;27623;51.966;4.602;2022-10-31T08:40:31;64445.41;;;11.59;100.00
41636;BME280;27623;51.966;4.602;2022-10-31T08:43:02;64513.53;;;11.98;100.00
41636;BME280;27623;51.966;4.602;2022-10-31T08:45:29;64469.75;;;11.93;100.00
41636;BME280;27623;51.966;4.602;2022-10-31T08:47:59;64479.78;;;11.91;100.00
41636;BME280;27623;51.966;4.602;2022-10-31T08:50:25;64463.06;;;11.78;100.00
41636;BME280;27623;51.966;4.602;2022-10-31T08:52:51;64508.41;;;11.98;100.00
41636;BME280;27623;51.966;4.602;2022-10-31T08:55:16;64514.06;;;11.99;100.00
41636;BME280;27623;51.966;4.602;2022-10-31T08:57:44;64462.25;;;12.03;100.00
41636;BME280;27623;51.966;4.602;2022-10-31T09:00:12;64512.38;;;12.12;100.00
41636;BME280;27623;51.966;4.602;2022-10-31T09:02:37;64546.09;;;12.33;100.00
41636;BME280;27623;51.966;4.602;2022-10-31T09:05:04;64587.66;;;12.51;100.00
41636;BME280;27623;51.966;4.602;2022-10-31T09:07:34;64588.00;;;12.63;100.00
41636;BME280;27623;51.966;4.602;2022-10-31T09:10:02;64591.41;;;12.76;100.00
41636;BME280;27623;51.966;4.602;2022-10-31T09:12:28;64622.81;;;12.86;100.00
41636;BME280;27623;51.966;4.602;2022-10-31T09:14:53;64607.81;;;12.91;100.00
41636;BME280;27623;51.966;4.602;2022-10-31T09:17:19;64599.75;;;12.93;100.00
41636;BME280;27623;51.966;4.602;2022-10-31T09:19:44;64630.06;;;13.09;100.00
41636;BME280;27623;51.966;4.602;2022-10-31T09:22:15;64634.63;;;13.08;100.00
41636;BME280;27623;51.966;4.602;2022-10-31T09:24:43;64623.84;;;13.08;100.00
41636;BME280;27623;51.966;4.602;2022-10-31T09:27:09;64608.69;;;12.96;100.00
41636;BME280;27623;51.966;4.602;2022-10-31T09:29:39;64601.50;;;13.11;100.00
41636;BME280;27623;51.966;4.602;2022-10-31T09:32:07;64631.88;;;13.06;100.00
41636;BME280;27623;51.966;4.602;2022-10-31T09:34:33;64655.03;;;13.30;100.00
41636;BME280;27623;51.966;4.602;2022-10-31T09:36:58;64624.16;;;13.27;100.00
41636;BME280;27623;51.966;4.602;2022-10-31T09:39:26;64652.09;;;13.32;100.00
41636;BME280;27623;51.966;4.602;2022-10-31T09:42:08;64667.44;;;13.32;100.00
41636;BME280;27623;51.966;4.602;2022-10-31T09:50:25;64665.41;;;13.47;100.00
41636;BME280;27623;51.966;4.602;2022-10-31T09:53:03;64705.75;;;13.67;100.00
41636;BME280;27623;51.966;4.602;2022-10-31T09:55:40;64718.00;;;13.67;100.00
41636;BME280;27623;51.966;4.602;2022-10-31T09:58:14;64717.94;;;13.74;100.00
41636;BME280;27623;51.966;4.602;2022-10-31T10:00:40;64715.44;;;13.67;100.00
41636;BME280;27623;51.966;4.602;2022-10-31T10:05:37;64714.47;;;13.75;100.00
41636;BME280;27623;51.966;4.602;2022-10-31T10:08:12;64718.13;;;13.76;100.00
41636;BME280;27623;51.966;4.602;2022-10-31T10:11:17;64734.41;;;13.82;100.00
41636;BME280;27623;51.966;4.602;2022-10-31T10:16:38;64740.38;;;13.95;100.00
41636;BME280;27623;51.966;4.602;2022-10-31T10:25:12;64760.97;;;14.19;100.00
41636;BME280;27623;51.966;4.602;2022-10-31T10:28:02;64797.16;;;14.38;100.00
41636;BME280;27623;51.966;4.602;2022-10-31T10:33:20;64854.06;;;14.98;100.00
41636;BME280;27623;51.966;4.602;2022-10-31T10:35:55;64957.19;;;15.34;100.00
41636;BME280;27623;51.966;4.602;2022-10-31T10:38:52;64945.53;;;15.59;100.00
41636;BME280;27623;51.966;4.602;2022-10-31T10:41:24;64997.81;;;16.02;100.00
41636;BME280;27623;51.966;4.602;2022-10-31T10:43:50;64992.28;;;16.04;100.00
41636;BME280;27623;51.966;4.602;2022-10-31T10:46:21;64990.72;;;15.89;100.00
41636;BME280;27623;51.966;4.602;2022-10-31T10:49:34;64927.94;;;15.57;100.00
41636;BME280;27623;51.966;4.602;2022-10-31T10:55:11;64942.41;;;15.58;100.00
41636;BME280;27623;51.966;4.602;2022-10-31T10:58:01;64934.53;;;15.56;100.00
41636;BME280;27623;51.966;4.602;2022-10-31T11:00:30;64918.78;;;15.43;100.00
41636;BME280;27623;51.966;4.602;2022-10-31T11:02:57;64901.06;;;15.32;100.00
41636;BME280;27623;51.966;4.602;2022-10-31T11:08:04;64907.28;;;15.33;100.00
41636;BME280;27623;51.966;4.602;2022-10-31T11:10:30;64907.66;;;15.31;100.00
41636;BME280;27623;51.966;4.602;2022-10-31T11:18:53;64895.16;;;15.36;100.00
41636;BME280;27623;51.966;4.602;2022-10-31T11:21:26;64938.81;;;15.36;100.00
41636;BME280;27623;51.966;4.602;2022-10-31T11:24:23;64927.47;;;15.35;100.00
41636;BME280;27623;51.966;4.602;2022-10-31T11:26:51;64919.03;;;15.32;100.00
41636;BME280;27623;51.966;4.602;2022-10-31T11:29:22;64902.34;;;15.28;100.00
41636;BME280;27623;51.966;4.602;2022-10-31T11:31:52;64900.53;;;15.24;100.00
41636;BME280;27623;51.966;4.602;2022-10-31T11:34:28;64904.91;;;15.28;100.00
41636;BME280;27623;51.966;4.602;2022-10-31T11:37:00;64945.81;;;15.33;100.00
41636;BME280;27623;51.966;4.602;2022-10-31T11:39:27;64893.00;;;15.27;100.00
41636;BME280;27623;51.966;4.602;2022-10-31T11:41:54;64880.88;;;15.30;100.00
41636;BME280;27623;51.966;4.602;2022-10-31T11:44:23;64887.53;;;15.22;100.00
41636;BME280;27623;51.966;4.602;2022-10-31T11:46:56;64897.06;;;15.19;100.00
41636;BME280;27623;51.966;4.602;2022-10-31T11:51:58;64882.00;;;15.24;100.00
41636;BME280;27623;51.966;4.602;2022-10-31T11:54:31;64922.34;;;15.28;100.00
41636;BME280;27623;51.966;4.602;2022-10-31T11:56:58;64919.78;;;15.28;100.00
41636;BME280;27623;51.966;4.602;2022-10-31T11:59:30;64917.91;;;15.38;100.00
41636;BME280;27623;51.966;4.602;2022-10-31T12:02:01;64906.84;;;15.49;100.00
41636;BME280;27623;51.966;4.602;2022-10-31T12:06:57;64988.59;;;15.72;100.00
41636;BME280;27623;51.966;4.602;2022-10-31T12:09:27;64982.66;;;15.84;100.00
41636;BME280;27623;51.966;4.602;2022-10-31T12:17:23;65068.34;;;16.41;100.00
41636;BME280;27623;51.966;4.602;2022-10-31T12:23:02;65077.16;;;16.42;100.00
41636;BME280;27623;51.966;4.602;2022-10-31T12:33:36;64990.31;;;16.29;100.00
41636;BME280;27623;51.966;4.602;2022-10-31T12:36:40;65012.19;;;16.25;100.00
41636;BME280;27623;51.966;4.602;2022-10-31T12:41:52;65029.66;;;16.25;100.00
41636;BME280;27623;51.966;4.602;2022-10-31T12:50:26;65015.41;;;16.11;100.00
41636;BME280;27623;51.966;4.602;2022-10-31T12:55:53;65027.97;;;16.30;100.00
41636;BME280;27623;51.966;4.602;2022-10-31T12:58:31;65018.88;;;16.17;100.00
41636;BME280;27623;51.966;4.602;2022-10-31T13:01:08;64997.19;;;16.16;100.00
41636;BME280;27623;51.966;4.602;2022-10-31T13:04:03;65025.31;;;16.13;100.00
41636;BME280;27623;51.966;4.602;2022-10-31T13:06:38;65008.41;;;16.14;100.00
41636;BME280;27623;51.966;4.602;2022-10-31T13:09:09;65012.63;;;16.16;100.00
41636;BME280;27623;51.966;4.602;2022-10-31T13:11:42;65004.00;;;16.18;100.00
41636;BME280;27623;51.966;4.602;2022-10-31T13:14:11;65001.81;;;16.08;100.00
41636;BME280;27623;51.966;4.602;2022-10-31T13:16:44;64996.09;;;16.15;100.00
41636;BME280;27623;51.966;4.602;2022-10-31T13:19:25;64999.97;;;16.11;100.00
41636;BME280;27623;51.966;4.602;2022-10-31T13:24:41;64971.50;;;16.09;100.00
41636;BME280;27623;51.966;4.602;2022-10-31T13:27:15;65025.50;;;16.09;100.00
41636;BME280;27623;51.966;4.602;2022-10-31T13:32:22;65008.25;;;16.05;100.00
41636;BME280;27623;51.966;4.602;2022-10-31T13:34:53;65011.00;;;16.07;100.00
41636;BME280;27623;51.966;4.602;2022-10-31T13:37:30;65011.94;;;16.06;100.00
41636;BME280;27623;51.966;4.602;2022-10-31T13:42:43;64986.84;;;15.92;100.00
41636;BME280;27623;51.966;4.602;2022-10-31T13:45:17;64990.91;;;15.91;100.00
41636;BME280;27623;51.966;4.602;2022-10-31T13:48:17;64982.25;;;15.93;100.00
41636;BME280;27623;51.966;4.602;2022-10-31T13:50:57;64960.59;;;15.92;100.00
41636;BME280;27623;51.966;4.602;2022-10-31T13:53:35;65005.00;;;15.95;100.00
41636;BME280;27623;51.966;4.602;2022-10-31T13:58:35;64984.25;;;15.99;100.00
41636;BME280;27623;51.966;4.602;2022-10-31T14:03:33;64985.88;;;16.01;100.00
41636;BME280;27623;51.966;4.602;2022-10-31T14:06:03;64995.09;;;16.00;100.00
41636;BME280;27623;51.966;4.602;2022-10-31T14:08:36;64996.16;;;16.01;100.00
41636;BME280;27623;51.966;4.602;2022-10-31T14:11:03;64981.13;;;15.99;100.00
41636;BME280;27623;51.966;4.602;2022-10-31T14:13:43;64954.88;;;15.98;100.00
41636;BME280;27623;51.966;4.602;2022-10-31T14:16:31;64994.34;;;15.97;100.00
41636;BME280;27623;51.966;4.602;2022-10-31T14:19:01;64987.19;;;15.97;100.00
41636;BME280;27623;51.966;4.602;2022-10-31T14:21:36;64997.84;;;15.95;100.00
41636;BME280;27623;51.966;4.602;2022-10-31T14:26:58;64992.38;;;15.90;100.00
41636;BME280;27623;51.966;4.602;2022-10-31T14:29:26;64994.38;;;15.90;100.00
41636;BME280;27623;51.966;4.602;2022-10-31T14:34:24;64974.38;;;15.90;100.00
41636;BME280;27623;51.966;4.602;2022-10-31T14:39:38;64958.94;;;15.90;100.00
41636;BME280;27623;51.966;4.602;2022-10-31T14:45:15;64968.16;;;15.82;100.00
41636;BME280;27623;51.966;4.602;2022-10-31T14:47:56;65019.19;;;15.84;100.00
41636;BME280;27623;51.966;4.602;2022-10-31T14:50:52;64948.16;;;15.82;100.00
41636;BME280;27623;51.966;4.602;2022-10-31T14:53:25;64985.94;;;15.87;100.00
41636;BME280;27623;51.966;4.602;2022-10-31T14:55:54;64974.56;;;15.86;100.00
41636;BME280;27623;51.966;4.602;2022-10-31T14:58:35;65010.38;;;15.83;100.00
41636;BME280;27623;51.966;4.602;2022-10-31T15:01:02;64970.56;;;15.79;100.00
41636;BME280;27623;51.966;4.602;2022-10-31T15:03:34;64983.03;;;15.81;100.00